Terminal Aerodrome Forecast
Issued by NWS

Home | Current Version | Previous Version | Graphics & Text | Print | Product List | Glossary On
Versions: 1 2 3 4 5 6 7 8 9 10 11 12 13 14 15
000
FTUS41 KCLE 221140
TAFFDY
TAF
KFDY 221140Z 2212/2312 21007KT 5SM BR SCT028 BKN045
      TEMPO 2212/2213 1SM BR BKN025
     FM221300 21008KT P6SM OVC025
      TEMPO 2213/2217 4SM BR OVC012
     FM222200 21008KT P6SM BKN035
     FM230300 20009KT 6SM BR OVC025
     FM230900 20010KT 4SM BR OVC010=

USA.gov is the U.S. government's official web portal to all federal, state and local government web resources and services.